ローマ・レオナルド・ダ・ビンチ国際空港の過去48時間の天気

ローマ・レオナルド・ダ・ビンチ国際空港 (Roma Fiumicino)

現在時刻: 5/27 05:28 CEST (5/27 03:28 UTC) 以下の時間は現地時間です。

過去48時間のMETAR気象情報
時間 風向 風速(m/s) 視程 気温(℃) 湿度(%) 気圧(hPa) 天気現象
27 04:50 3 10km以上 14 51 1025
27 04:20 北北西 3 10km以上 13 54 1025
27 03:50 北北東 3 10km以上 15 48 1025
27 03:20 4 10km以上 16 42 1025
27 02:50 北北東 6 10km以上 16 42 1024
27 02:20 不定 1 10km以上 15 41 1025
27 01:50 北北東 5 10km以上 17 36 1025
27 01:20 北東 4 10km以上 17 36 1025
27 00:50 北北東 5 10km以上 17 36 1024
27 00:20 北北東 6 10km以上 18 34 1024
26 23:50 北北東 7 10km以上 18 34 1024
26 23:20 北北東 6 10km以上 18 34 1024
26 22:50 北北東 5 10km以上 18 34 1023
26 22:20 北北東 5 10km以上 19 32 1023
26 21:50 北北東 6 10km以上 20 30 1023
26 21:20 北北東 7 10km以上 20 30 1022
26 20:50 6 10km以上 21 26 1022
26 20:20 6 10km以上 22 27 1022
26 19:50 6 10km以上 22 29 1022
26 19:20 7 10km以上 23 27 1022
26 18:50 北北西 5 10km以上 23 31 1022
26 18:20 西 6 10km以上 22 73 1022
26 17:50 西 7 10km以上 22 65 1022
26 17:20 西 6 10km以上 22 65 1022
26 16:50 西 7 10km以上 23 61 1022
26 16:20 西南西 7 10km以上 23 57 1022
26 15:50 西南西 7 10km以上 23 50 1022
26 15:20 西南西 7 10km以上 23 50 1023
26 14:50 南西 8 10km以上 24 36 1023
26 14:20 南西 7 10km以上 24 47 1023
26 13:50 南西 7 10km以上 24 54 1023
26 13:20 南西 7 10km以上 24 54 1023
26 12:50 南西 6 10km以上 24 54 1024
26 12:20 南南西 6 10km以上 24 54 1024
26 11:50 南南西 5 10km以上 23 50 1024
26 11:20 南南西 4 10km以上 24 50 1024
26 10:50 2 10km以上 24 47 1024
26 10:20 不定 2 10km以上 23 44 1024
26 09:50 東北東 3 10km以上 23 38 1023
26 09:20 東北東 4 10km以上 22 38 1023
26 08:50 東北東 4 10km以上 21 46 1023
26 08:20 東北東 4 10km以上 20 49 1023
26 07:50 東北東 3 10km以上 18 60 1023
26 07:20 不定 1 10km以上 17 68 1023
26 06:50 東北東 3 10km以上 15 77 1023
26 06:20 北北東 2 10km以上 13 82 1022
26 05:50 東北東 2 10km以上 13 82 1022
26 05:20 不定 1 10km以上 12 88 1022
26 04:50 北北東 1 10km以上 12 88 1022
26 04:20 2 10km以上 12 88 1022
26 03:50 不定 1 10km以上 13 88 1022
26 03:20 東北東 2 10km以上 13 88 1022
26 01:50 北北東 2 10km以上 15 88 1022
26 01:20 東北東 2 10km以上 16 82 1022
26 00:50 不定 1 10km以上 17 83 1022
26 00:20 2 10km以上 17 83 1022
25 23:50 北西 3 10km以上 18 83 1022
25 23:20 西北西 4 10km以上 18 83 1022
25 22:50 西北西 3 10km以上 19 78 1022
25 22:20 西北西 3 10km以上 19 78 1022
25 21:50 西北西 3 10km以上 19 78 1022
25 21:20 西北西 3 10km以上 19 78 1022
25 20:50 西北西 4 10km以上 20 68 1022
25 20:20 西北西 4 10km以上 21 64 1022
25 19:50 西北西 5 10km以上 21 64 1022
25 19:20 西 5 10km以上 22 60 1021
25 18:50 西 6 10km以上 22 57 1022
25 18:20 西北西 6 10km以上 22 57 1022
25 17:50 西 6 10km以上 22 57 1022
25 17:20 西 6 10km以上 23 57 1022
25 16:50 西 6 10km以上 23 53 1022
25 16:20 西 5 10km以上 23 57 1022
25 15:50 西 6 10km以上 23 57 1022
25 15:20 西南西 6 10km以上 23 61 1022
25 14:50 西 6 10km以上 23 61 1023
25 14:20 西南西 6 10km以上 24 57 1023
25 13:50 西南西 6 10km以上 24 57 1023
25 13:20 西南西 6 10km以上 24 57 1023
25 12:50 西南西 6 10km以上 24 54 1023
25 12:20 西南西 5 10km以上 24 54 1023
25 11:50 西南西 4 10km以上 24 54 1023
25 11:20 西南西 5 10km以上 24 54 1023
25 10:50 不定 2 10km以上 25 44 1024
25 10:20 不定 2 10km以上 24 50 1024
25 09:50 2 10km以上 23 50 1024
25 09:20 北東 3 10km以上 23 53 1024
25 08:50 北東 3 10km以上 22 57 1023
25 08:20 東北東 3 10km以上 21 60 1023
25 07:50 北東 3 10km以上 19 73 1023
25 07:20 北東 3 10km以上 17 88 1023
25 06:50 北北東 2 10km以上 16 94 1023
25 06:20 北北東 2 10km以上 15 94 1023
25 05:50 2 10km以上 14 100 1023
LIRF 270250Z 01006KT CAVOK 14/04 Q1025 NOSIG
LIRF 270220Z 34005KT CAVOK 13/04 Q1025 NOSIG
LIRF 270150Z 02005KT 350V060 CAVOK 15/04 Q1025 NOSIG
LIRF 270120Z 01007KT 340V040 CAVOK 16/03 Q1025 NOSIG
LIRF 270050Z 02012KT CAVOK 16/03 Q1024 NOSIG
LIRF 270020Z VRB01KT CAVOK 15/02 Q1025 NOSIG
LIRF 262350Z 02009KT CAVOK 17/02 Q1025 NOSIG
LIRF 262320Z 04008KT CAVOK 17/02 Q1025 NOSIG
LIRF 262250Z 03009KT CAVOK 17/02 Q1024 NOSIG
LIRF 262220Z 03012KT CAVOK 18/02 Q1024 NOSIG
LIRF 262150Z 03013KT CAVOK 18/02 Q1024 NOSIG
LIRF 262120Z 02011KT CAVOK 18/02 Q1024 NOSIG
LIRF 262050Z 02009KT CAVOK 18/02 Q1023 NOSIG
LIRF 262020Z 02010KT CAVOK 19/02 Q1023 NOSIG
LIRF 261950Z 03011KT CAVOK 20/02 Q1023 NOSIG
LIRF 261920Z 03013KT CAVOK 20/02 Q1022 NOSIG
LIRF 261850Z 01011KT CAVOK 21/01 Q1022 NOSIG
LIRF 261820Z 01012KT CAVOK 22/02 Q1022 NOSIG
LIRF 261750Z 36011KT CAVOK 22/03 Q1022 NOSIG
LIRF 261720Z 36013KT CAVOK 23/03 Q1022 NOSIG
LIRF 261650Z 34009KT 300V010 CAVOK 23/05 Q1022 NOSIG
LIRF 261620Z 28012KT CAVOK 22/17 Q1022 NOSIG
LIRF 261550Z 28014KT CAVOK 22/15 Q1022 NOSIG
LIRF 261520Z 27012KT CAVOK 22/15 Q1022 NOSIG
LIRF 261450Z 26013KT 9999 FEW025 23/15 Q1022 NOSIG
LIRF 261420Z 25013KT CAVOK 23/14 Q1022 NOSIG
LIRF 261350Z 24014KT 9999 FEW025 23/12 Q1022 NOSIG
LIRF 261320Z 24014KT 9999 FEW025 23/12 Q1023 NOSIG
LIRF 261250Z 23015KT CAVOK 24/08 Q1023 NOSIG
LIRF 261220Z 23014KT CAVOK 24/12 Q1023 NOSIG
LIRF 261150Z 23014KT CAVOK 24/14 Q1023 NOSIG
LIRF 261120Z 22013KT CAVOK 24/14 Q1023 NOSIG
LIRF 261050Z 22011KT 180V250 CAVOK 24/14 Q1024 NOSIG
LIRF 261020Z 20011KT CAVOK 24/14 Q1024 NOSIG
LIRF 260950Z 21009KT 180V240 CAVOK 23/12 Q1024 NOSIG
LIRF 260920Z 20007KT 140V250 CAVOK 24/13 Q1024 NOSIG
LIRF 260850Z 19004KT 120V250 CAVOK 24/12 Q1024 NOSIG
LIRF 260820Z VRB03KT CAVOK 23/10 Q1024 NOSIG
LIRF 260750Z 07006KT 040V110 CAVOK 23/08 Q1023 NOSIG
LIRF 260720Z 06008KT CAVOK 22/07 Q1023 NOSIG
LIRF 260650Z 07007KT CAVOK 21/09 Q1023 NOSIG
LIRF 260620Z 07007KT 040V100 CAVOK 20/09 Q1023 NOSIG
LIRF 260550Z 06006KT CAVOK 18/10 Q1023 NOSIG
LIRF 260520Z VRB02KT CAVOK 17/11 Q1023 NOSIG
LIRF 260450Z 06005KT CAVOK 15/11 Q1023 NOSIG
LIRF 260420Z 03003KT 350V050 CAVOK 13/10 Q1022 NOSIG
LIRF 260350Z 07004KT CAVOK 13/10 Q1022 NOSIG
LIRF 260320Z VRB02KT CAVOK 12/10 Q1022 NOSIG
LIRF 260250Z 02002KT CAVOK 12/10 Q1022 NOSIG
LIRF 260220Z 36003KT CAVOK 12/10 Q1022 NOSIG
LIRF 260150Z VRB02KT CAVOK 13/11 Q1022 NOSIG
LIRF 260120Z 06003KT CAVOK 13/11 Q1022 NOSIG
LIRF 252350Z 02003KT CAVOK 15/13 Q1022 NOSIG
LIRF 252320Z 07003KT CAVOK 16/13 Q1022 NOSIG
LIRF 252250Z VRB01KT CAVOK 17/14 Q1022 NOSIG
LIRF 252220Z 09003KT CAVOK 17/14 Q1022 NOSIG
LIRF 252150Z 31005KT CAVOK 18/15 Q1022 NOSIG
LIRF 252120Z 30007KT CAVOK 18/15 Q1022 NOSIG
LIRF 252050Z 29005KT CAVOK 19/15 Q1022 NOSIG
LIRF 252020Z 29006KT CAVOK 19/15 Q1022 NOSIG
LIRF 251950Z 30006KT CAVOK 19/15 Q1022 NOSIG
LIRF 251920Z 30006KT CAVOK 19/15 Q1022 NOSIG
LIRF 251850Z 30007KT CAVOK 20/14 Q1022 NOSIG
LIRF 251820Z 30008KT CAVOK 21/14 Q1022 NOSIG
LIRF 251750Z 29009KT CAVOK 21/14 Q1022 NOSIG
LIRF 251720Z 28010KT CAVOK 22/14 Q1021 NOSIG
LIRF 251650Z 28011KT 260V320 CAVOK 22/13 Q1022 NOSIG
LIRF 251620Z 29011KT CAVOK 22/13 Q1022 NOSIG
LIRF 251550Z 27012KT CAVOK 22/13 Q1022 NOSIG
LIRF 251520Z 28011KT CAVOK 23/14 Q1022 NOSIG
LIRF 251450Z 28011KT CAVOK 23/13 Q1022 NOSIG
LIRF 251420Z 28010KT 240V310 CAVOK 23/14 Q1022 NOSIG
LIRF 251350Z 27011KT CAVOK 23/14 Q1022 NOSIG
LIRF 251320Z 25011KT CAVOK 23/15 Q1022 NOSIG
LIRF 251250Z 26012KT CAVOK 23/15 Q1023 NOSIG
LIRF 251220Z 24012KT CAVOK 24/15 Q1023 NOSIG
LIRF 251150Z 25012KT CAVOK 24/15 Q1023 NOSIG
LIRF 251120Z 24012KT CAVOK 24/15 Q1023 NOSIG
LIRF 251050Z 24011KT CAVOK 24/14 Q1023 NOSIG
LIRF 251020Z 24010KT CAVOK 24/14 Q1023 NOSIG
LIRF 250950Z 25008KT 220V290 CAVOK 24/14 Q1023 NOSIG
LIRF 250920Z 24009KT 210V270 CAVOK 24/14 Q1023 NOSIG
LIRF 250850Z VRB03KT CAVOK 25/12 Q1024 NOSIG
LIRF 250820Z VRB03KT CAVOK 24/13 Q1024 NOSIG
LIRF 250750Z 10004KT 020V180 CAVOK 23/12 Q1024 NOSIG
LIRF 250720Z 05005KT 020V090 CAVOK 23/13 Q1024 NOSIG
LIRF 250650Z 04005KT CAVOK 22/13 Q1023 NOSIG
LIRF 250620Z 06006KT CAVOK 21/13 Q1023 NOSIG
LIRF 250550Z 04005KT CAVOK 19/14 Q1023 NOSIG
LIRF 250520Z 05005KT CAVOK 17/15 Q1023 NOSIG
LIRF 250450Z 03003KT 360V060 CAVOK 16/15 Q1023 NOSIG
LIRF 250420Z 02003KT CAVOK 15/14 Q1023 NOSIG
LIRF 250350Z 36004KT CAVOK 14/14 Q1023 NOSIG